Time;durP1;ratioP1;P1;durP2;ratioP2;P2;SDS_P1;SDS_P2;PMS_P1;PMS_P2;Temp;Humidity;BMP_temperature;BMP_pressure;BME280_temperature;BME280_humidity;BME280_pressure;Samples;Min_cycle;Max_cycle;Signal;HPM_P1;HPM_P2
2021/07/29 00:00:59;;;;;;;2.13;1.93;;;;;;;26.06;43.82;98141.63;5038643;28;20187;-57
2021/07/29 00:03:26;;;;;;;2.27;2.07;;;;;;;26.02;43.80;98151.13;5038274;28;20252;-57
2021/07/29 00:05:53;;;;;;;2.00;1.90;;;;;;;26.00;44.27;98155.03;5038240;28;20198;-57
2021/07/29 00:08:20;;;;;;;2.20;2.00;;;;;;;26.02;44.09;98153.78;5038043;28;20194;-57
2021/07/29 00:10:48;;;;;;;2.57;2.27;;;;;;;26.03;44.08;98155.44;5037772;28;20222;-58
2021/07/29 00:13:15;;;;;;;2.10;2.00;;;;;;;25.99;44.19;98146.22;5036321;28;20283;-57
2021/07/29 00:15:41;;;;;;;2.20;2.00;;;;;;;26.00;43.83;98145.19;5038104;28;20683;-57
2021/07/29 00:20:38;;;;;;;2.20;2.00;;;;;;;26.04;44.11;98138.34;5038058;28;20195;-58
2021/07/29 00:23:05;;;;;;;2.60;2.17;;;;;;;26.05;43.73;98142.66;5052690;28;20218;-58
2021/07/29 00:25:31;;;;;;;2.57;2.37;;;;;;;26.02;44.26;98134.25;5037455;28;20201;-57
2021/07/29 00:27:58;;;;;;;2.37;2.17;;;;;;;26.01;44.09;98133.44;5037464;28;20205;-57
2021/07/29 00:30:26;;;;;;;2.10;1.90;;;;;;;26.04;43.80;98141.03;5037394;28;20202;-57
2021/07/29 00:32:54;;;;;;;2.30;2.10;;;;;;;26.01;44.07;98136.13;5037708;28;20221;-57
2021/07/29 00:35:21;;;;;;;2.20;2.10;;;;;;;26.01;43.79;98135.28;5037574;28;20199;-58
2021/07/29 00:37:50;;;;;;;2.17;1.97;;;;;;;26.01;43.79;98138.78;5037437;28;20190;-57
2021/07/29 00:40:17;;;;;;;2.37;2.20;;;;;;;25.97;44.25;98134.09;5035902;28;20182;-58
2021/07/29 00:42:43;;;;;;;2.43;2.17;;;;;;;26.00;43.82;98133.66;5037229;28;20214;-57
2021/07/29 00:45:10;;;;;;;2.43;2.07;;;;;;;26.02;43.81;98131.56;5037430;28;20209;-57
2021/07/29 00:47:40;;;;;;;2.07;1.97;;;;;;;26.00;43.79;98123.78;5052490;28;20182;-57
2021/07/29 00:50:10;;;;;;;2.20;2.10;;;;;;;26.06;44.01;98133.59;5035756;28;20214;-58
2021/07/29 00:52:38;;;;;;;2.90;2.23;;;;;;;26.03;43.89;98130.53;5037686;28;20212;-57
2021/07/29 00:55:05;;;;;;;2.63;2.10;;;;;;;26.09;43.80;98121.66;5037646;28;20190;-57
2021/07/29 00:57:33;;;;;;;2.20;2.00;;;;;;;26.04;43.60;98124.97;5037480;28;20248;-57
2021/07/29 01:00:01;;;;;;;2.13;2.03;;;;;;;26.02;43.89;98116.38;5037909;28;20579;-57
2021/07/29 01:02:27;;;;;;;2.17;2.00;;;;;;;26.02;44.05;98119.03;5037397;28;20701;-57
2021/07/29 01:04:55;;;;;;;2.13;2.03;;;;;;;25.98;44.02;98115.16;5035620;28;20205;-57
2021/07/29 01:07:22;;;;;;;2.07;1.97;;;;;;;25.99;43.91;98111.47;5036769;28;20577;-57
2021/07/29 01:09:48;;;;;;;1.80;1.70;;;;;;;25.98;43.97;98106.31;5052122;28;20629;-57
2021/07/29 01:12:15;;;;;;;2.40;2.20;;;;;;;26.01;43.90;98103.19;5037425;28;20210;-58
2021/07/29 01:14:41;;;;;;;2.03;1.90;;;;;;;25.98;43.68;98098.28;5037344;28;20198;-57
2021/07/29 01:17:08;;;;;;;2.37;2.17;;;;;;;26.00;44.00;98107.75;5036667;28;20193;-58
2021/07/29 01:19:34;;;;;;;2.37;2.17;;;;;;;25.95;44.06;98102.22;5035968;28;20186;-58
2021/07/29 01:22:01;;;;;;;2.37;2.17;;;;;;;25.93;43.99;98101.63;5037263;28;20209;-58
2021/07/29 01:24:27;;;;;;;2.40;2.20;;;;;;;25.93;44.22;98099.78;5037238;28;20197;-58
2021/07/29 01:26:54;;;;;;;2.30;2.10;;;;;;;25.92;44.06;98095.47;5037414;28;20530;-58
2021/07/29 01:29:21;;;;;;;2.33;2.13;;;;;;;25.93;43.92;98097.09;5035993;28;20550;-58
2021/07/29 01:31:48;;;;;;;1.93;1.83;;;;;;;25.93;44.18;98090.94;5037626;28;20225;-58
2021/07/29 01:34:17;;;;;;;2.30;2.10;;;;;;;25.93;43.77;98101.63;5036638;28;20190;-58
2021/07/29 01:36:45;;;;;;;2.13;2.00;;;;;;;25.91;44.08;98093.00;5036489;28;20625;-57
2021/07/29 01:39:11;;;;;;;2.90;1.80;;;;;;;25.89;44.08;98090.56;5036363;28;20683;-57
2021/07/29 01:41:38;;;;;;;1.93;1.83;;;;;;;25.91;44.13;98093.84;5036068;28;20190;-56
2021/07/29 01:44:04;;;;;;;2.20;2.00;;;;;;;25.90;43.83;98088.69;5036150;28;20197;-57
2021/07/29 01:46:31;;;;;;;2.20;2.00;;;;;;;25.90;44.28;98094.03;5036314;28;20195;-57
2021/07/29 01:48:57;;;;;;;2.17;1.97;;;;;;;25.89;44.00;98092.41;5036288;28;20209;-57
2021/07/29 01:51:24;;;;;;;2.40;2.20;;;;;;;25.92;43.89;98094.63;5036351;28;20198;-57
2021/07/29 01:53:50;;;;;;;2.07;1.93;;;;;;;25.92;44.07;98083.94;5036354;28;20202;-58
2021/07/29 01:56:18;;;;;;;2.20;2.10;;;;;;;25.89;44.09;98077.19;5035434;28;20236;-57
2021/07/29 01:58:45;;;;;;;2.10;1.90;;;;;;;25.90;43.86;98076.16;5036163;28;20202;-57
2021/07/29 02:01:19;;;;;;;2.00;1.90;;;;;;;25.88;43.89;98082.75;5036178;28;20186;-57
2021/07/29 02:03:48;;;;;;;2.03;1.90;;;;;;;25.87;44.04;98081.13;5035937;28;20205;-57
2021/07/29 02:06:14;;;;;;;2.30;2.07;;;;;;;25.86;43.94;98077.63;5035794;28;20190;-58
2021/07/29 02:08:40;;;;;;;1.90;1.80;;;;;;;25.87;44.27;98081.13;5035886;28;20232;-57
2021/07/29 02:11:07;;;;;;;2.20;2.10;;;;;;;25.87;44.22;98081.13;5034588;28;20213;-57
2021/07/29 02:13:33;;;;;;;2.10;2.00;;;;;;;25.87;44.14;98083.78;5035663;28;20210;-57
2021/07/29 02:16:00;;;;;;;1.83;1.73;;;;;;;25.86;44.08;98087.50;5034168;28;20216;-57
2021/07/29 02:18:27;;;;;;;2.30;2.10;;;;;;;25.85;44.08;98083.19;5035280;28;20217;-58
2021/07/29 02:20:53;;;;;;;2.00;1.80;;;;;;;25.86;43.94;98090.97;5035426;28;20204;-57
2021/07/29 02:23:19;;;;;;;2.17;1.77;;;;;;;25.87;43.86;98094.50;5035539;28;20271;-57
2021/07/29 02:25:46;;;;;;;1.90;1.80;;;;;;;25.90;44.08;98096.72;5035741;28;20182;-57
2021/07/29 02:28:12;;;;;;;2.13;1.80;;;;;;;25.88;43.78;98090.78;5035021;28;20195;-57
2021/07/29 02:30:39;;;;;;;2.23;2.07;;;;;;;25.90;43.73;98096.72;5035250;28;20213;-57
2021/07/29 02:33:05;;;;;;;2.00;1.90;;;;;;;25.91;43.75;98093.00;5035147;28;20210;-57
2021/07/29 02:35:32;;;;;;;2.13;2.00;;;;;;;25.92;43.70;98094.63;5034885;28;20206;-57
2021/07/29 02:38:00;;;;;;;2.00;1.90;;;;;;;25.91;43.94;98093.00;5033772;28;20605;-57
2021/07/29 02:40:26;;;;;;;1.93;1.83;;;;;;;25.95;43.60;98102.22;5034953;28;20657;-57
2021/07/29 02:42:53;;;;;;;2.10;1.90;;;;;;;25.93;43.79;98098.94;5034930;28;20704;-57
2021/07/29 02:45:19;;;;;;;1.90;1.80;;;;;;;25.89;43.79;98100.44;5034919;28;20190;-57
2021/07/29 02:47:46;;;;;;;2.30;2.17;;;;;;;25.89;43.72;98105.78;5035342;28;20202;-57
2021/07/29 02:50:12;;;;;;;1.90;1.80;;;;;;;25.87;43.80;98108.66;5034863;28;20194;-58
2021/07/29 02:52:41;;;;;;;2.00;1.90;;;;;;;25.89;44.02;98101.25;5035001;28;20218;-57
2021/07/29 02:55:08;;;;;;;2.17;2.03;;;;;;;25.89;43.74;98101.25;5034620;28;20190;-58
2021/07/29 02:57:35;;;;;;;2.17;2.00;;;;;;;25.93;43.85;98098.94;5035106;28;20190;-57
2021/07/29 03:00:04;;;;;;;2.47;2.27;;;;;;;25.93;43.72;98099.78;5034789;28;20554;-58
2021/07/29 03:02:30;;;;;;;2.13;1.93;;;;;;;25.90;43.84;98094.88;5035164;28;20205;-57
2021/07/29 03:04:57;;;;;;;2.30;2.10;;;;;;;25.87;43.99;98097.16;5034640;28;20182;-57
2021/07/29 03:07:23;;;;;;;2.07;1.97;;;;;;;25.88;43.90;98106.81;5034430;28;20202;-57
2021/07/29 03:09:50;;;;;;;2.03;1.90;;;;;;;25.88;43.99;98104.13;5035111;28;20190;-58
2021/07/29 03:12:16;;;;;;;1.87;1.70;;;;;;;25.91;43.66;98103.69;5034577;28;20264;-57
2021/07/29 03:14:44;;;;;;;3.23;2.00;;;;;;;25.90;43.68;98102.06;5034749;28;20734;-57
2021/07/29 03:17:11;;;;;;;2.10;2.00;;;;;;;25.86;43.93;98101.66;5033379;28;20252;-57
2021/07/29 03:19:38;;;;;;;1.90;1.77;;;;;;;25.86;43.93;98108.88;5034545;28;20661;-57
2021/07/29 03:22:05;;;;;;;1.90;1.80;;;;;;;25.86;43.65;98108.88;5034403;28;20198;-57
2021/07/29 03:24:34;;;;;;;2.20;2.00;;;;;;;25.88;44.03;98104.13;5034495;28;20194;-57
2021/07/29 03:27:01;;;;;;;2.10;2.00;;;;;;;25.88;43.59;98109.47;5034839;28;20182;-57
2021/07/29 03:29:29;;;;;;;1.80;1.70;;;;;;;25.83;43.76;98101.31;5016642;28;20627;-58
2021/07/29 03:31:55;;;;;;;2.10;1.90;;;;;;;25.81;43.98;98096.16;5034266;28;20215;-57
2021/07/29 03:34:22;;;;;;;2.23;1.93;;;;;;;25.80;44.10;98100.69;5034302;28;20282;-57
2021/07/29 03:36:48;;;;;;;2.17;2.07;;;;;;;25.83;44.13;98109.34;5034635;28;20520;-57
2021/07/29 03:39:15;;;;;;;2.17;2.00;;;;;;;25.81;43.72;98112.22;5034531;28;20265;-57
2021/07/29 03:41:41;;;;;;;2.40;2.20;;;;;;;25.83;43.86;98112.00;5034502;28;20216;-57
2021/07/29 03:44:08;;;;;;;1.80;1.70;;;;;;;25.84;43.69;98113.63;5034569;28;20190;-57
2021/07/29 03:46:34;;;;;;;2.93;1.90;;;;;;;25.82;43.87;98115.72;5034547;28;20289;-57
2021/07/29 03:49:01;;;;;;;2.63;1.97;;;;;;;25.82;44.11;98115.72;5034487;28;20198;-57
2021/07/29 03:51:27;;;;;;;2.00;1.90;;;;;;;25.78;44.02;98110.78;5016487;28;20354;-57
2021/07/29 03:53:54;;;;;;;2.03;1.93;;;;;;;25.76;44.04;98112.06;5037393;28;20597;-57
2021/07/29 03:56:20;;;;;;;2.10;2.00;;;;;;;25.74;43.99;98120.28;5038200;28;20589;-58
2021/07/29 03:58:47;;;;;;;2.00;1.90;;;;;;;25.75;44.19;98121.09;5037795;28;20557;-57
2021/07/29 04:01:13;;;;;;;2.20;2.00;;;;;;;25.78;44.11;98121.47;5036482;28;20186;-57
2021/07/29 04:03:40;;;;;;;2.07;1.97;;;;;;;25.76;44.15;98122.75;5053066;28;20221;-57
2021/07/29 04:06:06;;;;;;;1.83;1.73;;;;;;;25.75;44.21;98123.78;5037824;28;20194;-57
2021/07/29 04:08:33;;;;;;;2.20;2.00;;;;;;;25.76;43.87;98122.75;5037637;28;20189;-57
2021/07/29 04:10:59;;;;;;;2.17;1.97;;;;;;;25.73;43.99;98121.31;5038143;28;20216;-57
2021/07/29 04:13:26;;;;;;;2.20;2.10;;;;;;;25.75;43.88;98127.25;5037425;28;20252;-57
2021/07/29 04:16:00;;;;;;;1.97;1.87;;;;;;;25.74;44.25;98130.16;5037330;28;20194;-57
2021/07/29 04:18:28;;;;;;;2.00;1.83;;;;;;;25.73;43.99;98123.97;5037415;28;20216;-57
2021/07/29 04:20:55;;;;;;;2.20;1.90;;;;;;;25.76;43.75;98125.41;5037330;28;20236;-57
2021/07/29 04:23:21;;;;;;;2.30;2.10;;;;;;;25.75;44.04;98123.78;5035731;28;20252;-57
2021/07/29 04:25:48;;;;;;;1.70;1.60;;;;;;;25.73;44.08;98126.66;5037564;28;20572;-58
2021/07/29 04:28:14;;;;;;;1.93;1.80;;;;;;;25.67;44.23;98127.53;5037846;28;20252;-57
2021/07/29 04:30:40;;;;;;;2.03;1.80;;;;;;;25.67;44.23;98132.88;5037522;28;20189;-57
2021/07/29 04:33:10;;;;;;;2.13;1.97;;;;;;;25.65;44.11;98126.91;5036032;28;20206;-57
2021/07/29 04:35:40;;;;;;;2.03;1.93;;;;;;;25.59;44.54;98130.44;5036963;28;20205;-57
2021/07/29 04:38:06;;;;;;;1.80;1.70;;;;;;;25.61;44.36;98137.22;5037438;28;20595;-57
2021/07/29 04:40:33;;;;;;;2.23;2.10;;;;;;;25.62;44.49;98132.69;5037237;28;20551;-57
2021/07/29 04:42:59;;;;;;;1.93;1.83;;;;;;;25.60;44.15;98134.75;5035611;28;20222;-57
2021/07/29 04:45:26;;;;;;;2.00;1.90;;;;;;;25.57;44.60;98136.03;5036876;28;20228;-57
2021/07/29 04:47:52;;;;;;;2.13;1.90;;;;;;;25.55;44.24;98137.25;5036958;28;20197;-57
2021/07/29 04:50:19;;;;;;;2.13;2.03;;;;;;;25.54;44.36;98140.97;5035686;28;20194;-57
2021/07/29 04:52:45;;;;;;;2.10;1.70;;;;;;;25.53;44.38;98139.34;5037216;28;20264;-58
2021/07/29 04:55:12;;;;;;;1.90;1.80;;;;;;;25.53;44.65;98136.66;5036477;28;20718;-57
2021/07/29 04:57:39;;;;;;;2.83;1.90;;;;;;;25.55;44.42;98143.41;5035492;28;20265;-57
2021/07/29 05:00:06;;;;;;;2.20;2.10;;;;;;;25.60;44.29;98134.75;5035454;28;20260;-57
2021/07/29 05:02:32;;;;;;;2.23;1.97;;;;;;;25.60;44.29;98140.09;5036508;28;20688;-57
2021/07/29 05:04:59;;;;;;;2.17;2.07;;;;;;;25.59;44.40;98128.59;5035408;28;20194;-57
2021/07/29 05:07:26;;;;;;;2.20;2.10;;;;;;;25.56;44.38;98123.66;5051973;28;20201;-57
2021/07/29 05:09:53;;;;;;;2.03;1.90;;;;;;;25.58;44.38;98123.47;5036953;28;20198;-58
2021/07/29 05:12:20;;;;;;;2.10;1.93;;;;;;;25.60;44.27;98121.41;5037190;28;20665;-58
2021/07/29 05:14:46;;;;;;;1.97;1.87;;;;;;;25.62;44.25;98116.66;5037083;28;20215;-58
2021/07/29 05:17:13;;;;;;;2.33;2.13;;;;;;;25.64;44.23;98125.25;5035663;28;20224;-58
2021/07/29 05:19:39;;;;;;;2.10;2.00;;;;;;;25.61;44.21;98123.88;5037103;28;20190;-57
2021/07/29 05:22:06;;;;;;;1.80;1.70;;;;;;;25.60;44.22;98132.09;5035247;28;20214;-58
2021/07/29 05:24:32;;;;;;;2.10;2.00;;;;;;;25.60;44.32;98137.44;5037115;28;20225;-58
2021/07/29 05:26:59;;;;;;;2.70;2.30;;;;;;;25.61;44.44;98142.56;5036718;28;20713;-58
2021/07/29 05:29:25;;;;;;;1.97;1.87;;;;;;;25.64;44.20;98143.97;5037102;28;20190;-58
2021/07/29 05:31:52;;;;;;;2.10;1.90;;;;;;;25.63;44.33;98147.69;5036474;28;20229;-57
2021/07/29 05:34:19;;;;;;;2.13;2.03;;;;;;;25.64;44.18;98158.16;5034148;28;20210;-57
2021/07/29 05:36:45;;;;;;;1.97;1.87;;;;;;;25.64;44.30;98152.00;5037369;28;20545;-57
2021/07/29 05:39:12;;;;;;;2.20;2.00;;;;;;;25.63;44.07;98155.69;5035777;28;20186;-57
2021/07/29 05:41:38;;;;;;;2.20;2.07;;;;;;;25.59;44.44;98152.66;5036082;28;20194;-58
2021/07/29 05:44:05;;;;;;;1.90;1.80;;;;;;;25.58;44.21;98159.03;5034802;28;20656;-57
2021/07/29 05:46:31;;;;;;;1.97;1.87;;;;;;;25.58;44.44;98160.88;5035953;28;20200;-57
2021/07/29 05:48:58;;;;;;;2.00;1.90;;;;;;;25.61;44.44;98157.78;5035638;28;20204;-57
2021/07/29 05:51:24;;;;;;;2.17;2.07;;;;;;;25.60;44.22;98159.63;5035643;28;20205;-57
2021/07/29 05:53:51;;;;;;;2.30;2.10;;;;;;;25.60;44.20;98156.97;5035378;28;20214;-57
2021/07/29 05:56:17;;;;;;;4.27;2.30;;;;;;;25.61;44.67;98152.41;5034057;28;20237;-61
2021/07/29 05:58:44;;;;;;;3.97;2.80;;;;;;;25.52;44.06;98159.88;5033769;28;20201;-61
2021/07/29 06:01:10;;;;;;;4.70;3.37;;;;;;;25.40;43.56;98151.69;5033223;28;20186;-61
2021/07/29 06:03:38;;;;;;;4.17;3.17;;;;;;;25.33;43.36;98156.22;5032767;28;20228;-62
2021/07/29 06:06:04;;;;;;;5.10;2.97;;;;;;;25.29;43.54;98150.53;5033990;28;20208;-60
2021/07/29 06:08:31;;;;;;;5.37;3.37;;;;;;;25.26;43.50;98155.47;5032518;28;20563;-60
2021/07/29 06:11:02;;;;;;;3.67;2.97;;;;;;;25.20;43.20;98159.78;5033938;28;20190;-60
2021/07/29 06:13:28;;;;;;;6.73;3.20;;;;;;;25.16;43.33;98170.06;5033530;28;20272;-60
2021/07/29 06:15:55;;;;;;;4.87;3.20;;;;;;;25.10;43.24;98165.59;5031812;28;20198;-60
2021/07/29 06:18:23;;;;;;;4.63;2.83;;;;;;;25.12;43.42;98170.72;5042893;28;20563;-60
2021/07/29 06:20:50;;;;;;;4.53;2.80;;;;;;;25.16;43.27;98178.09;5035761;28;20213;-60
2021/07/29 06:23:16;;;;;;;6.80;3.17;;;;;;;25.17;42.81;98169.06;5053318;28;20209;-60
2021/07/29 06:25:43;;;;;;;4.23;3.00;;;;;;;25.17;42.83;98182.41;5047593;28;20664;-60
2021/07/29 06:28:13;;;;;;;4.37;3.03;;;;;;;25.19;42.80;98183.03;5033694;28;20185;-60
2021/07/29 06:30:42;;;;;;;5.33;2.70;;;;;;;25.15;42.89;98183.66;5032191;28;20190;-60
2021/07/29 06:33:08;;;;;;;3.40;2.90;;;;;;;25.14;42.64;98184.69;5033207;28;20217;-60
2021/07/29 06:35:35;;;;;;;4.40;2.97;;;;;;;25.11;42.50;98185.91;5045719;28;20201;-58
2021/07/29 06:38:01;;;;;;;3.13;2.77;;;;;;;25.12;42.93;98187.56;5036868;28;20198;-57
2021/07/29 06:40:28;;;;;;;4.20;2.87;;;;;;;25.10;42.91;98189.63;5046926;28;20193;-57
2021/07/29 06:42:54;;;;;;;3.20;2.90;;;;;;;25.12;42.79;98192.91;5051975;28;20582;-57
2021/07/29 06:45:21;;;;;;;3.67;2.90;;;;;;;25.15;43.17;98189.00;5050847;28;20205;-57
2021/07/29 06:47:47;;;;;;;3.90;2.83;;;;;;;25.18;42.80;98197.41;5052983;28;20215;-59
2021/07/29 06:50:14;;;;;;;3.33;2.63;;;;;;;25.23;42.88;98197.59;5052326;28;20189;-57
2021/07/29 06:52:40;;;;;;;3.73;2.80;;;;;;;25.26;42.67;98191.00;5044049;28;20688;-57
2021/07/29 06:55:07;;;;;;;4.37;2.40;;;;;;;25.26;42.60;98192.84;5033242;28;20212;-57
2021/07/29 06:57:33;;;;;;;5.50;2.77;;;;;;;25.27;42.32;98195.31;5033085;28;20593;-57
2021/07/29 07:00:00;;;;;;;5.10;2.57;;;;;;;25.28;42.31;98199.63;5033148;28;20193;-57
2021/07/29 07:02:27;;;;;;;3.00;2.27;;;;;;;25.33;42.54;98193.63;5033229;28;20253;-58
2021/07/29 07:04:53;;;;;;;2.77;2.47;;;;;;;25.38;42.49;98191.97;5041138;28;20205;-58
2021/07/29 07:07:20;;;;;;;2.97;2.70;;;;;;;25.43;42.05;98198.53;5051883;28;20205;-59
2021/07/29 07:09:46;;;;;;;4.50;2.50;;;;;;;25.46;42.09;98204.25;5052918;28;20722;-59
2021/07/29 07:12:13;;;;;;;4.80;2.93;;;;;;;25.47;42.37;98200.53;5051550;28;20261;-58
2021/07/29 07:14:39;;;;;;;2.70;2.33;;;;;;;25.46;42.49;98212.28;5052818;28;20188;-58
2021/07/29 07:17:07;;;;;;;2.97;2.30;;;;;;;25.50;42.16;98205.53;5053150;28;20211;-58
2021/07/29 07:19:35;;;;;;;3.23;2.40;;;;;;;25.51;42.36;98207.16;5052276;28;20190;-58
2021/07/29 07:22:04;;;;;;;3.40;2.47;;;;;;;25.55;42.16;98202.19;5052179;28;20209;-58
2021/07/29 07:24:34;;;;;;;3.00;2.70;;;;;;;25.57;42.14;98207.31;5052876;28;20189;-58
2021/07/29 07:27:05;;;;;;;4.67;2.43;;;;;;;25.60;41.99;98214.91;5052066;28;20193;-58
2021/07/29 07:29:35;;;;;;;3.53;2.47;;;;;;;25.58;42.08;98214.31;5056813;28;20185;-58
2021/07/29 07:32:02;;;;;;;2.77;2.20;;;;;;;25.53;42.03;98214.13;5056452;28;20692;-58
2021/07/29 07:34:28;;;;;;;2.80;2.47;;;;;;;25.54;41.90;98211.22;5056636;28;20193;-59
2021/07/29 07:36:55;;;;;;;3.00;2.57;;;;;;;25.54;42.08;98202.41;5057134;28;20636;-58
2021/07/29 07:39:23;;;;;;;2.53;2.27;;;;;;;25.49;42.13;98208.41;5056605;28;20185;-61
2021/07/29 07:41:50;;;;;;;3.10;2.50;;;;;;;25.47;41.92;98208.56;5056256;28;20209;-61
2021/07/29 07:44:17;;;;;;;4.27;2.40;;;;;;;25.44;41.82;98216.22;5055366;28;20185;-61
2021/07/29 07:46:43;;;;;;;2.90;2.43;;;;;;;25.41;41.57;98214.75;5056233;28;20607;-61
2021/07/29 07:49:12;;;;;;;4.53;2.60;;;;;;;25.41;41.28;98211.25;5056114;28;20196;-61
2021/07/29 07:51:39;;;;;;;4.13;2.30;;;;;;;25.42;41.21;98208.41;5055999;28;20721;-60
2021/07/29 07:54:07;;;;;;;2.33;2.13;;;;;;;25.41;41.04;98214.75;5056190;28;20576;-61
2021/07/29 07:56:33;;;;;;;3.00;2.33;;;;;;;25.44;41.04;98219.69;5056073;28;20185;-61
2021/07/29 07:59:00;;;;;;;3.40;2.30;;;;;;;25.45;40.88;98215.97;5054717;28;20193;-61
2021/07/29 08:01:26;;;;;;;3.50;2.27;;;;;;;25.49;40.58;98213.75;5056103;28;20228;-60
2021/07/29 08:03:53;;;;;;;3.10;2.40;;;;;;;25.46;40.84;98212.28;5055964;28;20182;-61
2021/07/29 08:06:21;;;;;;;5.00;2.27;;;;;;;25.45;40.34;98210.63;5054625;28;20201;-62
2021/07/29 08:08:48;;;;;;;4.40;2.40;;;;;;;25.42;40.37;98203.06;5055987;28;20189;-62
2021/07/29 08:11:14;;;;;;;4.40;2.20;;;;;;;25.44;40.24;98210.88;5055753;28;20190;-62
2021/07/29 08:13:41;;;;;;;2.00;1.87;;;;;;;25.45;40.51;98213.31;5055515;28;20213;-61
2021/07/29 08:16:08;;;;;;;2.57;2.00;;;;;;;25.49;40.09;98213.75;5054798;28;20635;-61
2021/07/29 08:18:34;;;;;;;3.70;2.27;;;;;;;25.52;40.09;98202.63;5055578;28;20212;-61
2021/07/29 08:21:07;;;;;;;3.00;2.13;;;;;;;25.58;39.96;98212.47;5056133;28;20591;-61
2021/07/29 08:23:33;;;;;;;2.70;2.23;;;;;;;25.60;40.12;98205.06;5055702;28;20749;-61
2021/07/29 08:26:00;;;;;;;3.93;2.27;;;;;;;25.63;39.91;98209.13;5056065;28;20247;-61
2021/07/29 08:28:26;;;;;;;3.03;2.37;;;;;;;25.61;40.18;98205.84;5055496;28;20190;-61
2021/07/29 08:30:53;;;;;;;2.43;2.10;;;;;;;25.60;40.31;98209.56;5055360;28;20193;-61
2021/07/29 08:33:19;;;;;;;3.20;2.10;;;;;;;25.57;40.51;98199.31;5055332;28;20706;-61
2021/07/29 08:35:46;;;;;;;3.03;2.10;;;;;;;25.64;40.59;98206.25;5055364;28;20542;-61
2021/07/29 08:38:12;;;;;;;2.40;2.07;;;;;;;25.65;40.56;98193.69;5054829;28;20189;-61
2021/07/29 08:40:39;;;;;;;4.10;2.40;;;;;;;25.64;40.69;98200.09;5054304;28;20197;-61
2021/07/29 08:43:07;;;;;;;2.40;1.90;;;;;;;25.68;40.66;98205.81;5055338;28;20214;-61
2021/07/29 08:45:41;;;;;;;2.30;2.10;;;;;;;25.63;40.62;98201.13;5055394;28;20208;-61
2021/07/29 08:48:10;;;;;;;3.80;2.30;;;;;;;25.61;40.61;98200.50;5055110;28;20181;-62
2021/07/29 08:50:37;;;;;;;2.83;2.40;;;;;;;25.61;40.33;98203.19;5053560;28;20204;-61
2021/07/29 08:53:04;;;;;;;2.80;2.17;;;;;;;25.64;40.46;98202.75;5054655;28;20221;-61
2021/07/29 08:55:30;;;;;;;2.17;1.97;;;;;;;25.65;40.57;98207.06;5054765;28;20660;-62
2021/07/29 08:57:57;;;;;;;2.53;2.10;;;;;;;25.72;40.80;98218.56;5054881;28;20185;-61
2021/07/29 09:00:23;;;;;;;4.27;2.33;;;;;;;25.73;40.63;98216.69;5055105;28;20658;-63
2021/07/29 09:02:50;;;;;;;2.50;2.20;;;;;;;25.67;41.05;98209.53;5055040;28;20193;-63
2021/07/29 09:05:21;;;;;;;2.53;2.30;;;;;;;25.62;41.02;98212.84;5054793;28;20561;-60
2021/07/29 09:08:02;;;;;;;2.60;2.40;;;;;;;25.60;40.29;98205.06;5053742;28;20247;-60
2021/07/29 09:10:30;;;;;;;3.93;2.37;;;;;;;25.62;40.60;98212.84;5054967;28;20209;-60
2021/07/29 09:13:16;;;;;;;2.50;2.30;;;;;;;25.66;40.33;98208.72;5056670;28;20713;-58
2021/07/29 09:15:44;;;;;;;2.40;2.20;;;;;;;25.67;40.62;98209.53;5056917;28;20177;-58
2021/07/29 09:18:16;;;;;;;2.63;2.20;;;;;;;25.70;40.76;98196.56;5057919;28;20187;-59
2021/07/29 09:20:44;;;;;;;3.43;2.50;;;;;;;25.74;40.36;98207.66;5055917;28;20288;-58
2021/07/29 09:23:18;;;;;;;2.33;2.13;;;;;;;25.75;40.42;98202.09;5056230;28;20212;-58
2021/07/29 09:25:57;;;;;;;2.67;2.17;;;;;;;25.78;40.45;98209.66;5054794;28;20180;-62
2021/07/29 09:28:37;;;;;;;2.30;2.10;;;;;;;25.78;40.63;98217.69;5055405;28;20181;-62
2021/07/29 09:31:21;;;;;;;2.50;2.23;;;;;;;25.71;40.17;98219.59;5053431;28;20172;-61
2021/07/29 09:33:58;;;;;;;6.33;2.50;;;;;;;25.75;39.79;98222.66;5053038;28;20226;-61
2021/07/29 09:36:28;;;;;;;2.83;2.40;;;;;;;25.73;39.99;98212.16;5054411;28;20197;-61
2021/07/29 09:39:21;;;;;;;3.43;2.60;;;;;;;25.73;40.45;98209.50;5052948;28;20675;-61
2021/07/29 09:41:50;;;;;;;3.20;2.67;;;;;;;25.67;40.31;98225.56;5053658;28;20210;-61
2021/07/29 09:44:40;;;;;;;4.50;2.70;;;;;;;25.68;40.40;98230.72;5054071;28;20189;-61
2021/07/29 09:47:08;;;;;;;2.77;2.50;;;;;;;25.68;40.25;98222.69;5053046;28;20178;-61
2021/07/29 09:49:36;;;;;;;3.13;2.63;;;;;;;25.68;40.23;98228.03;5053848;28;20226;-61
2021/07/29 09:52:03;;;;;;;3.13;2.50;;;;;;;25.69;40.36;98234.19;5052835;28;20219;-61
2021/07/29 09:54:30;;;;;;;3.30;2.27;;;;;;;25.68;40.42;98228.03;5036587;28;20193;-62
2021/07/29 09:56:56;;;;;;;2.60;2.30;;;;;;;25.68;40.32;98224.53;5053798;28;20679;-61
2021/07/29 09:59:23;;;;;;;3.33;2.60;;;;;;;25.71;40.22;98232.94;5053724;28;20193;-61
2021/07/29 10:01:50;;;;;;;4.67;2.37;;;;;;;25.72;39.74;98215.88;5053616;28;20205;-61
2021/07/29 10:04:30;;;;;;;2.53;2.30;;;;;;;25.77;39.82;98216.03;5052477;28;20236;-61
2021/07/29 10:06:59;;;;;;;2.57;2.37;;;;;;;25.76;40.12;98225.09;5053019;28;20180;-60
2021/07/29 10:09:28;;;;;;;4.70;2.60;;;;;;;25.80;40.20;98226.31;5053696;28;20539;-63
2021/07/29 10:11:58;;;;;;;2.70;2.50;;;;;;;25.80;40.05;98225.50;5054448;28;20577;-59
2021/07/29 10:14:44;;;;;;;4.80;2.33;;;;;;;25.82;40.46;98233.31;5055698;28;20258;-58
2021/07/29 10:17:13;;;;;;;3.50;2.53;;;;;;;25.84;40.23;98223.22;5055404;28;20173;-59
2021/07/29 10:20:15;;;;;;;2.40;2.20;;;;;;;25.84;40.47;98221.34;5055803;28;20189;-58
2021/07/29 10:22:44;;;;;;;4.13;2.33;;;;;;;25.85;40.41;98214.16;5055077;28;20210;-59
2021/07/29 10:25:11;;;;;;;3.40;2.60;;;;;;;25.91;40.38;98216.81;5055528;28;20277;-58
2021/07/29 10:27:38;;;;;;;2.13;2.03;;;;;;;25.90;40.41;98225.03;5055040;28;20216;-58
2021/07/29 10:30:36;;;;;;;2.60;2.40;;;;;;;25.96;40.37;98224.16;5055425;28;20198;-58
2021/07/29 10:33:16;;;;;;;2.60;2.40;;;;;;;26.00;40.61;98219.19;5043222;28;20237;-58
2021/07/29 10:35:43;;;;;;;5.03;2.30;;;;;;;26.01;40.24;98216.31;5054687;28;20679;-58
2021/07/29 10:38:10;;;;;;;2.90;2.50;;;;;;;26.03;40.68;98218.75;5054932;28;20186;-60
2021/07/29 10:40:41;;;;;;;4.77;2.53;;;;;;;26.03;40.63;98214.25;5055525;28;20551;-59
2021/07/29 10:43:29;;;;;;;3.40;2.33;;;;;;;26.06;40.43;98245.91;5055414;28;20621;-59
2021/07/29 10:45:57;;;;;;;2.30;2.10;;;;;;;26.06;40.81;98223.69;5053730;28;20196;-60
2021/07/29 10:49:01;;;;;;;2.87;2.23;;;;;;;26.07;41.00;98226.16;5055411;28;20194;-58
2021/07/29 10:51:28;;;;;;;2.50;2.30;;;;;;;26.04;40.73;98228.41;5055444;28;20235;-59
2021/07/29 10:53:57;;;;;;;3.30;2.10;;;;;;;26.05;41.02;98230.91;5054743;28;20205;-59
2021/07/29 10:56:25;;;;;;;2.53;2.30;;;;;;;26.07;40.75;98223.47;5054898;28;20186;-58
2021/07/29 10:58:56;;;;;;;2.20;2.00;;;;;;;26.04;41.18;98215.88;5053490;28;20194;-59
2021/07/29 11:01:46;;;;;;;2.20;2.10;;;;;;;26.10;40.86;98213.38;5056456;28;20186;-59
2021/07/29 11:04:13;;;;;;;2.30;2.10;;;;;;;26.12;41.08;98216.66;5061482;28;20174;-58
2021/07/29 11:06:42;;;;;;;2.60;2.20;;;;;;;26.12;40.81;98208.63;5061711;28;20189;-58
2021/07/29 11:09:16;;;;;;;2.30;2.10;;;;;;;26.07;41.17;98211.97;5060885;28;20220;-58
2021/07/29 11:11:43;;;;;;;2.97;2.40;;;;;;;26.10;41.00;98216.03;5060469;28;20184;-60
2021/07/29 11:14:10;;;;;;;4.20;2.40;;;;;;;26.08;41.35;98211.72;5060028;28;20295;-60
2021/07/29 11:16:38;;;;;;;4.17;2.47;;;;;;;26.06;41.01;98207.66;5059818;28;20231;-61
2021/07/29 11:19:06;;;;;;;2.30;2.10;;;;;;;26.06;40.98;98213.00;5060014;28;20192;-61
2021/07/29 11:21:34;;;;;;;2.40;2.20;;;;;;;26.01;41.04;98210.97;5060237;28;20250;-61
2021/07/29 11:24:01;;;;;;;3.73;2.30;;;;;;;26.00;40.87;98203.16;5059843;28;20215;-60
2021/07/29 11:26:43;;;;;;;3.30;2.30;;;;;;;26.01;40.16;98199.44;5059904;28;20235;-60
2021/07/29 11:29:10;;;;;;;3.03;2.20;;;;;;;26.01;39.78;98208.31;5060713;28;20256;-60
2021/07/29 11:31:41;;;;;;;2.70;2.23;;;;;;;26.00;39.68;98209.34;5059914;28;20192;-61
2021/07/29 11:34:09;;;;;;;5.53;2.40;;;;;;;26.02;39.47;98207.28;5059636;28;20205;-62
2021/07/29 11:36:36;;;;;;;4.27;2.43;;;;;;;26.04;39.31;98212.38;5059461;28;20194;-60
2021/07/29 11:39:06;;;;;;;4.53;2.70;;;;;;;25.97;39.27;98198.25;5059375;28;20208;-61
2021/07/29 11:41:51;;;;;;;3.33;2.43;;;;;;;25.97;39.01;98199.06;5059457;28;20193;-60